Time;durP1;ratioP1;P1;durP2;ratioP2;P2;SDS_P1;SDS_P2;PMS_P1;PMS_P2;Temp;Humidity;BMP_temperature;BMP_pressure;BME280_temperature;BME280_humidity;BME280_pressure;Samples;Min_cycle;Max_cycle;Signal;HPM_P1;HPM_P2
2022/04/09 00:01:41;;;;;;;3.50;1.23;;;1.90;99.90;;;;;;4978817;28;20049;-63
2022/04/09 00:04:08;;;;;;;2.45;1.30;;;1.90;99.90;;;;;;4977031;28;20164;-63
2022/04/09 00:06:35;;;;;;;3.83;1.20;;;1.90;99.90;;;;;;4973137;28;20138;-64
2022/04/09 00:09:02;;;;;;;7.22;1.25;;;1.90;99.90;;;;;;4977993;28;20053;-62
2022/04/09 00:11:28;;;;;;;3.42;1.27;;;1.90;99.90;;;;;;4982408;28;20538;-63
2022/04/09 00:13:55;;;;;;;4.25;1.05;;;1.90;99.90;;;;;;4983044;28;20050;-64
2022/04/09 00:16:23;;;;;;;4.45;1.35;;;2.00;99.90;;;;;;4979886;28;20145;-68
2022/04/09 00:18:50;;;;;;;7.70;1.30;;;2.00;99.90;;;;;;4971627;28;20053;-63
2022/04/09 00:21:17;;;;;;;3.60;1.13;;;1.90;99.90;;;;;;4973370;28;20661;-62
2022/04/09 00:23:44;;;;;;;2.30;1.17;;;1.80;99.90;;;;;;4974981;28;20125;-62
2022/04/09 00:26:11;;;;;;;1.05;0.82;;;1.80;99.90;;;;;;4983386;28;20140;-67
2022/04/09 00:28:37;;;;;;;4.00;1.40;;;1.70;99.90;;;;;;4980027;28;20164;-64
2022/04/09 00:31:04;;;;;;;2.03;1.05;;;1.70;99.90;;;;;;4981066;28;20430;-62
2022/04/09 00:33:31;;;;;;;4.32;0.88;;;1.70;99.90;;;;;;4977515;28;20054;-63
2022/04/09 00:35:58;;;;;;;4.97;1.48;;;1.70;99.90;;;;;;4980796;28;20528;-63
2022/04/09 00:38:26;;;;;;;1.45;0.80;;;1.70;99.90;;;;;;4984471;28;20038;-62
2022/04/09 00:40:53;;;;;;;1.15;0.70;;;1.70;99.90;;;;;;4977485;28;20051;-62
2022/04/09 00:43:20;;;;;;;4.85;1.75;;;1.70;99.90;;;;;;4980658;28;20523;-64
2022/04/09 00:45:49;;;;;;;9.20;2.10;;;1.70;99.90;;;;;;4979859;28;20632;-63
2022/04/09 00:48:20;;;;;;;1.70;1.17;;;1.70;99.90;;;;;;4984577;28;20068;-63
2022/04/09 00:50:48;;;;;;;3.92;1.15;;;1.70;99.90;;;;;;4973523;28;20058;-63
2022/04/09 00:53:16;;;;;;;7.78;1.85;;;1.70;99.90;;;;;;4983189;28;20051;-63
2022/04/09 00:58:30;;;;;;;3.60;1.10;;;1.60;99.90;;;;;;4975686;28;20150;-64
2022/04/09 01:01:00;;;;;;;2.50;2.30;;;1.60;99.90;;;;;;5004402;28;20385;-64
2022/04/09 01:03:28;;;;;;;7.57;1.20;;;1.60;99.90;;;;;;4976132;28;20054;-63
2022/04/09 01:05:55;;;;;;;3.40;1.27;;;1.50;99.90;;;;;;4984862;28;20078;-63
2022/04/09 01:08:24;;;;;;;5.55;1.60;;;1.50;99.90;;;;;;4970715;28;20094;-65
2022/04/09 01:10:51;;;;;;;6.25;1.63;;;1.50;99.90;;;;;;4965042;28;20411;-65
2022/04/09 01:13:21;;;;;;;5.53;1.50;;;1.50;99.90;;;;;;4964606;28;20042;-67
2022/04/09 01:15:48;;;;;;;2.35;1.17;;;1.50;99.90;;;;;;4965460;28;20047;-64
2022/04/09 01:18:17;;;;;;;2.20;1.20;;;1.50;99.90;;;;;;4972027;28;20121;-64
2022/04/09 01:20:50;;;;;;;9.45;1.83;;;1.40;99.90;;;;;;4976450;28;20043;-65
2022/04/09 01:23:17;;;;;;;5.97;1.38;;;1.40;99.90;;;;;;4965960;28;20132;-64
2022/04/09 01:25:44;;;;;;;6.28;1.15;;;1.40;99.90;;;;;;4965020;28;20137;-63
2022/04/09 01:28:12;;;;;;;3.78;1.05;;;1.40;99.90;;;;;;4981835;28;20327;-64
2022/04/09 01:30:40;;;;;;;2.38;1.02;;;1.40;99.90;;;;;;4965011;28;20043;-64
2022/04/09 01:33:07;;;;;;;2.05;0.50;;;1.40;99.90;;;;;;4964329;28;20050;-67
2022/04/09 01:35:34;;;;;;;1.30;0.77;;;1.30;99.90;;;;;;4968723;28;20051;-64
2022/04/09 01:38:01;;;;;;;3.60;1.23;;;1.30;99.90;;;;;;4979402;28;20077;-63
2022/04/09 01:40:29;;;;;;;8.05;1.77;;;1.30;99.90;;;;;;4973810;28;20480;-64
2022/04/09 01:42:55;;;;;;;1.35;1.23;;;1.30;99.90;;;;;;4970185;28;20050;-62
2022/04/09 01:45:23;;;;;;;1.92;0.95;;;1.20;99.90;;;;;;4968415;28;20065;-64
2022/04/09 01:47:50;;;;;;;4.53;1.33;;;1.30;99.90;;;;;;5006550;28;20046;-68
2022/04/09 01:50:17;;;;;;;4.50;1.38;;;1.20;99.90;;;;;;4982089;28;20137;-63
2022/04/09 01:52:44;;;;;;;3.28;1.20;;;1.20;99.90;;;;;;4968178;28;20645;-65
2022/04/09 01:55:13;;;;;;;6.35;1.25;;;1.20;99.90;;;;;;4999264;28;20142;-68
2022/04/09 01:57:42;;;;;;;5.78;0.95;;;1.20;99.90;;;;;;4973025;28;20054;-64
2022/04/09 02:00:12;;;;;;;5.95;1.02;;;1.20;99.90;;;;;;4967544;28;20054;-64
2022/04/09 02:02:45;;;;;;;1.70;1.30;;;1.20;99.90;;;;;;4962412;28;20229;-67
2022/04/09 02:05:14;;;;;;;2.75;1.10;;;1.20;99.90;;;;;;4974895;28;20614;-63
2022/04/09 02:07:45;;;;;;;3.58;1.45;;;1.20;99.90;;;;;;4980627;28;20043;-65
2022/04/09 02:10:12;;;;;;;3.70;1.13;;;1.20;99.90;;;;;;4964499;28;20054;-65
2022/04/09 02:12:41;;;;;;;2.08;1.17;;;1.20;99.90;;;;;;4965000;28;20784;-66
2022/04/09 02:15:14;;;;;;;4.00;1.10;;;1.20;99.90;;;;;;5001510;28;20062;-65
2022/04/09 02:17:42;;;;;;;1.20;0.95;;;1.20;99.90;;;;;;4963171;28;20046;-64
2022/04/09 02:20:12;;;;;;;3.75;1.10;;;1.20;99.90;;;;;;4966242;28;20807;-64
2022/04/09 02:22:45;;;;;;;3.88;1.50;;;1.30;99.90;;;;;;4965813;28;20042;-66
2022/04/09 02:25:14;;;;;;;3.72;1.08;;;1.30;99.90;;;;;;4975317;28;20105;-63
2022/04/09 02:27:42;;;;;;;2.13;1.63;;;1.30;99.90;;;;;;4963260;28;20047;-63
2022/04/09 02:30:10;;;;;;;4.68;1.17;;;1.30;99.90;;;;;;4971043;28;20956;-64
2022/04/09 02:32:51;;;;;;;1.70;1.10;;;1.30;99.90;;;;;;4967049;28;20050;-66
2022/04/09 02:35:25;;;;;;;3.92;1.05;;;1.40;99.90;;;;;;4972938;28;20113;-65
2022/04/09 02:37:53;;;;;;;6.13;2.23;;;1.40;99.90;;;;;;4969052;28;20477;-64
2022/04/09 02:40:21;;;;;;;1.20;1.10;;;1.40;99.90;;;;;;4972393;28;20445;-65
2022/04/09 02:42:51;;;;;;;2.63;0.80;;;1.50;99.90;;;;;;4969843;28;20436;-65
2022/04/09 02:45:18;;;;;;;5.47;0.95;;;1.50;99.90;;;;;;4970685;28;20038;-67
2022/04/09 02:47:45;;;;;;;3.92;1.83;;;1.50;99.90;;;;;;4973746;28;20109;-65
2022/04/09 02:50:16;;;;;;;4.80;1.65;;;1.60;99.90;;;;;;4979490;28;20054;-64
2022/04/09 02:52:44;;;;;;;2.22;1.00;;;1.60;99.90;;;;;;4963496;28;20157;-63
2022/04/09 02:55:13;;;;;;;7.38;3.80;;;1.60;99.90;;;;;;4966259;28;20085;-66
2022/04/09 02:57:41;;;;;;;2.75;1.02;;;1.70;99.90;;;;;;4991132;28;20062;-65
2022/04/09 03:00:12;;;;;;;1.85;0.90;;;1.70;99.90;;;;;;4968134;28;20148;-65
2022/04/09 03:02:42;;;;;;;1.55;0.95;;;1.70;99.90;;;;;;4966477;28;20598;-67
2022/04/09 03:05:18;;;;;;;2.75;1.00;;;1.70;99.90;;;;;;5002620;28;20488;-63
2022/04/09 03:07:45;;;;;;;1.67;1.58;;;1.70;99.90;;;;;;4974776;28;20073;-65
2022/04/09 03:10:12;;;;;;;1.15;1.00;;;1.70;99.90;;;;;;4968962;28;20888;-63
2022/04/09 03:12:47;;;;;;;2.20;0.95;;;1.80;99.90;;;;;;4970590;28;20050;-64
2022/04/09 03:15:16;;;;;;;4.30;2.05;;;1.80;99.90;;;;;;4971114;28;20160;-67
2022/04/09 03:17:44;;;;;;;2.00;1.05;;;1.80;99.90;;;;;;4988439;28;20529;-64
2022/04/09 03:20:14;;;;;;;1.83;1.20;;;1.80;99.90;;;;;;4973715;28;20423;-66
2022/04/09 03:22:46;;;;;;;6.70;1.75;;;1.80;99.90;;;;;;4986897;28;20054;-63
2022/04/09 03:25:17;;;;;;;6.05;1.48;;;1.80;99.90;;;;;;4964352;28;20205;-64
2022/04/09 03:27:48;;;;;;;6.90;1.40;;;1.80;99.90;;;;;;5006324;28;20130;-64
2022/04/09 03:30:15;;;;;;;4.22;1.63;;;1.80;99.90;;;;;;5002042;28;20105;-64
2022/04/09 03:32:43;;;;;;;3.05;1.25;;;1.80;99.90;;;;;;4999480;28;20563;-64
2022/04/09 03:35:16;;;;;;;5.47;1.85;;;1.80;99.90;;;;;;4999598;28;20140;-66
2022/04/09 03:37:45;;;;;;;4.93;1.10;;;1.80;99.90;;;;;;4994795;28;20619;-63
2022/04/09 03:40:15;;;;;;;3.10;2.28;;;1.80;99.90;;;;;;4970513;28;20061;-68
2022/04/09 03:42:44;;;;;;;8.40;1.80;;;1.80;99.90;;;;;;4993643;28;20042;-63
2022/04/09 03:45:12;;;;;;;9.50;2.20;;;1.80;99.90;;;;;;5001628;28;20146;-65
2022/04/09 03:47:39;;;;;;;4.57;2.13;;;1.80;99.90;;;;;;4975334;28;20047;-65
2022/04/09 03:50:11;;;;;;;6.28;1.75;;;1.90;99.90;;;;;;4971233;28;20073;-65
2022/04/09 03:52:39;;;;;;;4.38;2.20;;;1.80;99.90;;;;;;4982325;28;21375;-64
2022/04/09 03:55:08;;;;;;;5.03;1.92;;;1.80;99.90;;;;;;5000368;28;20117;-62
2022/04/09 03:57:35;;;;;;;4.20;1.65;;;1.80;99.90;;;;;;4973005;28;20062;-63
2022/04/09 04:00:03;;;;;;;6.88;2.05;;;1.80;99.90;;;;;;4973899;28;20120;-63
2022/04/09 04:02:40;;;;;;;3.90;1.88;;;1.80;99.90;;;;;;4971605;28;20192;-67
2022/04/09 04:05:10;;;;;;;7.70;2.08;;;1.90;99.90;;;;;;5012457;28;20869;-64
2022/04/09 04:07:43;;;;;;;3.97;1.77;;;1.90;99.90;;;;;;4972032;28;20069;-63
2022/04/09 04:10:12;;;;;;;7.53;1.92;;;1.80;99.90;;;;;;5009559;28;20100;-63
2022/04/09 04:12:42;;;;;;;;;;;1.90;99.90;;;;;;5005051;28;20405;-65
2022/04/09 04:15:10;;;;;;;8.30;2.33;;;1.90;99.90;;;;;;5008736;28;19943;-65
2022/04/09 04:17:40;;;;;;;12.98;2.83;;;1.90;99.90;;;;;;4979269;28;20048;-64
2022/04/09 04:20:11;;;;;;;3.53;1.60;;;1.90;99.90;;;;;;4975490;28;20199;-64
2022/04/09 04:22:39;;;;;;;10.55;2.22;;;1.90;99.90;;;;;;4995267;28;20121;-64
2022/04/09 04:25:06;;;;;;;8.43;2.72;;;1.90;99.90;;;;;;4977810;28;20066;-63
2022/04/09 04:27:43;;;;;;;10.38;2.78;;;1.90;99.90;;;;;;4973792;28;20046;-64
2022/04/09 04:30:12;;;;;;;13.68;2.58;;;1.90;99.90;;;;;;4970163;28;20051;-64
2022/04/09 04:32:40;;;;;;;6.22;2.47;;;1.90;99.90;;;;;;4975420;28;20885;-62
2022/04/09 04:35:09;;;;;;;8.98;2.00;;;1.90;99.90;;;;;;4987855;28;20055;-68
2022/04/09 04:37:43;;;;;;;7.20;2.53;;;1.90;99.90;;;;;;4972065;28;20748;-63
2022/04/09 04:40:14;;;;;;;9.77;2.42;;;1.90;99.90;;;;;;4994789;28;20073;-64
2022/04/09 04:42:49;;;;;;;13.80;4.32;;;1.90;99.90;;;;;;4968060;28;21806;-63
2022/04/09 04:45:17;;;;;;;5.88;1.92;;;1.90;99.90;;;;;;5001198;28;20043;-64
2022/04/09 04:47:49;;;;;;;10.75;1.58;;;1.90;99.90;;;;;;5008671;28;20186;-65
2022/04/09 04:50:20;;;;;;;13.43;5.07;;;1.90;99.90;;;;;;4977565;28;20484;-65
2022/04/09 04:52:48;;;;;;;9.65;2.55;;;1.90;99.90;;;;;;4972718;28;20069;-63
2022/04/09 04:55:17;;;;;;;4.97;2.00;;;1.90;99.90;;;;;;4980700;28;20046;-63
2022/04/09 04:57:51;;;;;;;8.93;2.15;;;2.00;99.90;;;;;;4972093;28;20047;-63
2022/04/09 05:00:25;;;;;;;15.68;3.47;;;1.90;99.90;;;;;;4972903;28;20074;-66
2022/04/09 05:02:58;;;;;;;7.15;2.08;;;1.90;99.90;;;;;;4971180;28;20035;-64
2022/04/09 05:05:26;;;;;;;5.47;1.98;;;1.90;99.90;;;;;;5005994;28;20523;-63
2022/04/09 05:07:53;;;;;;;3.55;1.67;;;2.00;99.90;;;;;;5002744;28;20050;-63
2022/04/09 05:10:24;;;;;;;10.50;2.15;;;2.00;99.90;;;;;;4973931;28;20129;-64
2022/04/09 05:12:54;;;;;;;9.23;2.42;;;2.10;99.90;;;;;;4968940;28;20082;-64
2022/04/09 05:15:23;;;;;;;9.80;2.15;;;2.10;99.90;;;;;;5009459;28;20053;-64
2022/04/09 05:17:52;;;;;;;10.10;2.03;;;2.10;99.90;;;;;;4971930;28;20063;-63
2022/04/09 05:20:20;;;;;;;4.70;2.65;;;2.20;99.90;;;;;;4969939;28;20052;-64
2022/04/09 05:22:49;;;;;;;8.55;2.05;;;2.20;99.90;;;;;;4974055;28;20042;-65
2022/04/09 05:25:21;;;;;;;5.53;2.22;;;2.20;99.90;;;;;;4968189;28;20384;-63
2022/04/09 05:27:52;;;;;;;4.20;1.98;;;2.30;99.90;;;;;;4976397;28;20055;-63
2022/04/09 05:30:28;;;;;;;10.90;3.38;;;2.30;99.90;;;;;;4974967;28;20483;-64
2022/04/09 05:32:55;;;;;;;5.07;1.48;;;2.30;99.90;;;;;;4977491;28;20471;-64
2022/04/09 05:35:22;;;;;;;8.15;2.03;;;2.30;99.90;;;;;;4978769;28;20050;-65
2022/04/09 05:37:53;;;;;;;3.17;1.67;;;2.30;99.90;;;;;;4981035;28;20459;-65
2022/04/09 05:40:23;;;;;;;8.55;2.67;;;2.30;99.90;;;;;;4969910;28;20111;-65
2022/04/09 05:42:53;;;;;;;10.45;2.88;;;2.30;99.90;;;;;;4978526;28;20178;-64
2022/04/09 05:45:20;;;;;;;2.42;1.95;;;2.30;99.90;;;;;;4978824;28;20054;-64
2022/04/09 05:47:48;;;;;;;5.22;1.80;;;2.20;99.90;;;;;;5008857;28;20056;-62
2022/04/09 05:50:21;;;;;;;6.88;2.45;;;2.20;99.90;;;;;;4981304;28;20055;-66
2022/04/09 05:52:50;;;;;;;8.80;2.20;;;2.20;99.90;;;;;;4965574;28;20144;-63
2022/04/09 05:55:18;;;;;;;;;;;2.10;99.90;;;;;;4971287;28;20097;-65
2022/04/09 05:57:46;;;;;;;2.58;1.25;;;2.10;99.90;;;;;;4974091;28;19929;-63
2022/04/09 06:00:16;;;;;;;4.88;2.55;;;2.10;99.90;;;;;;4978497;28;20058;-68
2022/04/09 06:02:58;;;;;;;3.38;1.65;;;2.10;99.90;;;;;;4982093;28;20531;-65
2022/04/09 06:05:31;;;;;;;7.30;1.55;;;2.10;99.90;;;;;;5010105;28;20038;-66
2022/04/09 06:07:59;;;;;;;11.55;2.80;;;2.20;99.90;;;;;;5004448;28;20069;-64
2022/04/09 06:10:27;;;;;;;3.60;1.23;;;2.20;99.90;;;;;;4975811;28;20038;-64
2022/04/09 06:12:54;;;;;;;3.28;1.35;;;2.20;99.90;;;;;;4974867;28;20205;-64
2022/04/09 06:15:25;;;;;;;6.22;1.90;;;2.10;99.90;;;;;;4970618;28;20046;-63
2022/04/09 06:18:07;;;;;;;8.90;1.65;;;2.10;99.90;;;;;;4970954;28;20120;-65
2022/04/09 06:20:34;;;;;;;5.43;1.63;;;2.10;99.90;;;;;;5001186;28;20145;-64
2022/04/09 06:23:04;;;;;;;5.15;1.27;;;2.10;99.90;;;;;;4986488;28;20149;-63
2022/04/09 06:25:34;;;;;;;8.32;1.63;;;2.10;99.90;;;;;;5007535;28;20038;-64
2022/04/09 06:28:02;;;;;;;4.82;1.40;;;2.10;99.90;;;;;;4976149;28;20069;-63
2022/04/09 06:30:32;;;;;;;3.78;1.65;;;2.20;99.90;;;;;;4973758;28;20074;-63
2022/04/09 06:33:05;;;;;;;6.05;1.35;;;2.20;99.90;;;;;;4973145;28;20050;-65
2022/04/09 06:35:34;;;;;;;2.42;1.02;;;2.30;99.90;;;;;;5008171;28;20046;-65
2022/04/09 06:38:05;;;;;;;7.80;1.70;;;2.30;99.90;;;;;;4980559;28;20046;-65
2022/04/09 06:40:32;;;;;;;4.53;1.25;;;2.30;99.90;;;;;;4977966;28;20054;-64
2022/04/09 06:43:00;;;;;;;2.20;1.00;;;2.40;99.90;;;;;;4976643;28;20461;-64
2022/04/09 06:45:46;;;;;;;6.22;1.50;;;2.40;99.90;;;;;;4973467;28;20137;-67
2022/04/09 06:48:37;;;;;;;3.85;3.33;;;2.40;99.90;;;;;;4978066;28;20038;-68
2022/04/09 06:51:23;;;;;;;1.92;1.38;;;2.50;99.90;;;;;;4975855;28;20070;-66
2022/04/09 06:53:53;;;;;;;5.25;1.33;;;2.50;99.90;;;;;;4972818;28;20157;-67
2022/04/09 06:56:20;;;;;;;1.75;1.02;;;2.50;99.90;;;;;;4985522;28;20035;-66
2022/04/09 06:58:48;;;;;;;6.35;1.58;;;2.60;99.90;;;;;;4980164;28;20050;-63
2022/04/09 07:01:16;;;;;;;7.70;1.55;;;2.60;99.90;;;;;;4993720;28;20046;-67
2022/04/09 07:03:44;;;;;;;5.25;1.13;;;2.60;99.90;;;;;;4971186;28;20373;-63
2022/04/09 07:06:13;;;;;;;0.95;0.90;;;2.60;99.90;;;;;;4980423;28;20133;-65
2022/04/09 07:08:40;;;;;;;0.98;0.98;;;2.70;99.90;;;;;;4974564;28;20051;-65
2022/04/09 07:11:07;;;;;;;5.05;2.17;;;2.80;99.90;;;;;;4978975;28;20133;-65
2022/04/09 07:13:34;;;;;;;3.35;1.23;;;2.80;99.90;;;;;;4972446;28;20169;-66
2022/04/09 07:16:00;;;;;;;6.97;0.80;;;2.70;99.90;;;;;;4976620;28;20054;-68
2022/04/09 07:18:34;;;;;;;2.13;0.80;;;2.80;99.90;;;;;;4977404;28;20055;-64
2022/04/09 07:21:04;;;;;;;4.03;1.55;;;2.80;99.90;;;;;;4971442;28;20066;-63
2022/04/09 07:23:31;;;;;;;5.68;1.50;;;2.90;99.90;;;;;;4975678;28;20070;-64
2022/04/09 07:25:58;;;;;;;2.05;1.15;;;3.00;99.90;;;;;;4977843;28;20438;-65
2022/04/09 07:28:25;;;;;;;2.95;0.93;;;3.00;99.90;;;;;;4983543;28;20097;-63
2022/04/09 07:30:51;;;;;;;2.08;1.13;;;3.00;99.90;;;;;;4967261;28;20061;-67
2022/04/09 07:33:18;;;;;;;2.10;1.10;;;3.00;99.90;;;;;;4979244;28;20062;-65
2022/04/09 07:35:45;;;;;;;3.47;0.75;;;3.00;99.90;;;;;;4979128;28;20047;-62
2022/04/09 07:38:13;;;;;;;9.27;0.90;;;3.10;99.90;;;;;;4979036;28;20057;-64
2022/04/09 07:40:39;;;;;;;6.18;1.63;;;3.20;99.90;;;;;;4971696;28;20043;-64
2022/04/09 07:43:06;;;;;;;1.98;0.93;;;3.20;99.90;;;;;;4984399;28;20120;-65
2022/04/09 07:45:33;;;;;;;5.22;1.13;;;3.30;99.90;;;;;;4974090;28;20074;-65
2022/04/09 07:48:01;;;;;;;2.90;0.85;;;3.30;99.90;;;;;;4974883;28;20137;-64
2022/04/09 07:50:28;;;;;;;3.83;2.13;;;3.40;99.90;;;;;;4979024;28;20067;-65
2022/04/09 07:52:56;;;;;;;4.07;1.10;;;3.50;99.90;;;;;;4980771;28;20051;-64
2022/04/09 07:55:23;;;;;;;7.25;1.15;;;3.50;99.90;;;;;;4984278;28;20049;-66
2022/04/09 07:57:54;;;;;;;4.22;0.93;;;3.50;99.90;;;;;;4981699;28;20046;-65
2022/04/09 08:00:23;;;;;;;2.97;1.15;;;3.50;99.90;;;;;;4979706;28;20644;-63
2022/04/09 08:02:50;;;;;;;1.30;0.75;;;3.60;99.90;;;;;;4978652;28;20133;-64
2022/04/09 08:05:18;;;;;;;6.60;1.25;;;3.70;99.90;;;;;;4985991;28;20068;-64
2022/04/09 08:07:47;;;;;;;3.75;0.80;;;3.70;99.90;;;;;;4983658;28;20066;-64
2022/04/09 08:10:15;;;;;;;2.00;0.93;;;3.70;99.90;;;;;;4976750;28;20047;-65
2022/04/09 08:12:42;;;;;;;3.35;0.98;;;3.70;99.90;;;;;;4971730;28;20059;-65
2022/04/09 08:15:10;;;;;;;1.27;0.70;;;3.70;99.90;;;;;;4983288;28;20053;-64
2022/04/09 08:17:38;;;;;;;4.90;1.27;;;3.70;99.90;;;;;;4979343;28;20117;-64
2022/04/09 08:20:07;;;;;;;4.63;1.20;;;3.80;99.90;;;;;;4973343;28;20157;-66
2022/04/09 08:22:34;;;;;;;3.15;1.17;;;3.90;99.90;;;;;;4973821;28;20072;-66
2022/04/09 08:25:02;;;;;;;2.85;0.63;;;3.90;99.90;;;;;;4977760;28;20442;-63
2022/04/09 08:27:29;;;;;;;2.42;0.82;;;3.90;99.90;;;;;;4984417;28;20173;-66
2022/04/09 08:29:56;;;;;;;1.60;1.17;;;4.00;99.90;;;;;;4976277;28;20046;-63
2022/04/09 08:32:25;;;;;;;2.53;0.70;;;4.10;99.90;;;;;;4980966;28;20738;-67
2022/04/09 08:34:53;;;;;;;3.10;0.82;;;4.10;99.90;;;;;;4972059;28;20070;-65
2022/04/09 08:37:22;;;;;;;2.80;1.48;;;4.20;99.90;;;;;;4970552;28;20101;-65
2022/04/09 08:39:50;;;;;;;2.25;0.98;;;4.20;99.90;;;;;;4970001;28;20054;-64
2022/04/09 08:42:17;;;;;;;5.00;1.73;;;4.20;99.90;;;;;;4967028;28;20142;-62
2022/04/09 08:44:44;;;;;;;3.13;1.08;;;4.30;99.90;;;;;;4975956;28;20436;-63
2022/04/09 08:47:14;;;;;;;2.35;0.95;;;4.40;99.90;;;;;;4979122;28;20046;-67
2022/04/09 08:49:46;;;;;;;2.97;0.95;;;4.50;99.90;;;;;;4982263;28;20038;-65
2022/04/09 08:52:14;;;;;;;9.43;1.45;;;4.50;99.90;;;;;;4982617;28;20090;-63
2022/04/09 08:54:41;;;;;;;4.47;1.27;;;4.60;99.90;;;;;;4979261;28;20060;-65
2022/04/09 08:57:09;;;;;;;8.77;1.63;;;4.50;99.90;;;;;;4977773;28;20199;-63
2022/04/09 08:59:36;;;;;;;3.88;1.55;;;4.60;99.90;;;;;;4983328;28;20099;-66
2022/04/09 09:02:04;;;;;;;5.78;1.45;;;4.60;99.90;;;;;;4978172;28;20536;-66
2022/04/09 09:04:32;;;;;;;5.78;1.60;;;4.50;99.90;;;;;;4982848;28;20046;-64
2022/04/09 09:07:20;;;;;;;3.92;1.50;;;4.60;99.90;;;;;;4972521;28;20066;-63
2022/04/09 09:09:51;;;;;;;2.95;1.60;;;4.60;99.90;;;;;;4979400;28;20114;-63
2022/04/09 09:12:29;;;;;;;4.07;1.98;;;4.60;99.90;;;;;;4979138;28;20065;-64
2022/04/09 09:14:57;;;;;;;1.35;0.80;;;4.60;99.90;;;;;;4966922;28;20114;-63
2022/04/09 09:17:28;;;;;;;3.03;1.23;;;4.70;99.90;;;;;;4976759;28;20322;-65
2022/04/09 09:19:56;;;;;;;10.20;1.50;;;4.80;99.90;;;;;;4975970;28;20038;-63
2022/04/09 09:22:42;;;;;;;6.95;1.52;;;4.80;99.90;;;;;;4974024;28;20126;-68
2022/04/09 09:25:11;;;;;;;7.55;1.30;;;5.00;99.90;;;;;;4975556;28;20042;-65
2022/04/09 09:27:42;;;;;;;11.43;1.58;;;5.00;99.90;;;;;;4972764;28;20058;-65
2022/04/09 09:30:11;;;;;;;4.80;1.15;;;4.90;99.90;;;;;;4974250;28;20046;-65
2022/04/09 09:32:41;;;;;;;2.97;0.90;;;4.90;99.90;;;;;;4974565;28;20042;-66
2022/04/09 09:35:12;;;;;;;4.63;1.13;;;5.00;99.90;;;;;;4979479;28;20105;-63
2022/04/09 09:37:39;;;;;;;2.20;1.08;;;4.90;99.90;;;;;;4977362;28;20053;-63
2022/04/09 09:40:06;;;;;;;2.00;1.00;;;5.00;99.90;;;;;;4975912;28;20421;-64
2022/04/09 09:42:35;;;;;;;2.28;0.85;;;5.00;99.90;;;;;;4970875;28;20760;-63
2022/04/09 09:45:03;;;;;;;6.30;1.52;;;5.00;99.90;;;;;;4968021;28;20458;-64
2022/04/09 09:47:30;;;;;;;2.55;1.25;;;5.00;99.90;;;;;;4973938;28;20046;-64
2022/04/09 09:49:57;;;;;;;3.00;1.58;;;5.00;99.90;;;;;;4981368;28;20144;-66
2022/04/09 09:52:34;;;;;;;3.50;1.92;;;5.20;99.90;;;;;;4973411;28;20130;-64
2022/04/09 09:55:19;;;;;;;9.90;1.95;;;5.30;99.90;;;;;;4977579;28;20847;-65
2022/04/09 09:57:52;;;;;;;2.30;1.35;;;5.50;99.90;;;;;;4979269;28;20101;-63
2022/04/09 10:00:19;;;;;;;5.68;1.25;;;5.50;99.90;;;;;;4978199;28;20058;-64
2022/04/09 10:02:46;;;;;;;3.25;1.50;;;5.50;99.90;;;;;;4978673;28;20116;-63
2022/04/09 10:05:13;;;;;;;9.38;1.40;;;5.40;99.90;;;;;;4973374;28;20046;-69
2022/04/09 10:07:42;;;;;;;3.63;1.13;;;5.50;99.90;;;;;;4975989;28;20142;-64
2022/04/09 10:10:09;;;;;;;5.13;1.10;;;5.40;99.90;;;;;;4976711;28;20039;-66
2022/04/09 10:12:40;;;;;;;4.25;1.05;;;5.50;99.90;;;;;;4968019;28;20073;-69
2022/04/09 10:15:09;;;;;;;12.80;1.85;;;5.60;99.90;;;;;;4979625;28;20046;-65
2022/04/09 10:17:38;;;;;;;2.67;1.38;;;5.50;99.90;;;;;;4967291;28;20047;-64
2022/04/09 10:20:05;;;;;;;4.90;1.17;;;5.60;99.90;;;;;;4977895;28;20065;-70
2022/04/09 10:22:36;;;;;;;5.18;1.25;;;5.80;99.90;;;;;;4979590;28;20227;-64
2022/04/09 10:25:10;;;;;;;1.48;0.90;;;5.90;99.90;;;;;;4975152;28;20077;-63
2022/04/09 10:27:49;;;;;;;3.30;1.50;;;5.80;99.90;;;;;;4981226;28;20034;-65
2022/04/09 10:30:25;;;;;;;2.85;0.93;;;5.90;99.90;;;;;;4972459;28;20188;-64
2022/04/09 10:32:58;;;;;;;2.47;1.10;;;6.10;99.90;;;;;;4971776;28;20525;-65
2022/04/09 10:35:38;;;;;;;6.65;1.67;;;6.10;99.90;;;;;;4976745;28;20057;-64
2022/04/09 10:38:09;;;;;;;6.10;0.95;;;6.10;98.70;;;;;;4969655;28;20038;-66
2022/04/09 10:40:37;;;;;;;3.33;0.73;;;6.10;98.80;;;;;;4969987;28;20105;-64
2022/04/09 10:43:06;;;;;;;1.38;1.00;;;6.00;99.90;;;;;;4977886;28;20592;-69
2022/04/09 10:46:05;;;;;;;2.97;0.95;;;6.00;99.70;;;;;;4974650;28;20042;-64
2022/04/09 10:48:34;;;;;;;1.55;1.20;;;6.10;97.50;;;;;;4978720;28;20039;-64
2022/04/09 10:51:08;;;;;;;5.93;0.90;;;6.00;96.20;;;;;;4964714;28;20042;-63
2022/04/09 10:53:38;;;;;;;4.55;1.00;;;6.10;96.30;;;;;;4975045;28;20133;-65
2022/04/09 10:56:24;;;;;;;6.93;1.80;;;6.20;97.60;;;;;;4977641;28;20074;-65
2022/04/09 10:59:08;;;;;;;3.53;1.13;;;6.20;96.10;;;;;;4968776;28;20061;-66
2022/04/09 11:01:48;;;;;;;5.82;1.33;;;6.30;96.50;;;;;;4966296;28;20694;-63
2022/04/09 11:04:36;;;;;;;2.25;0.82;;;6.50;95.60;;;;;;4976311;28;20134;-63
2022/04/09 11:07:10;;;;;;;1.40;0.50;;;6.50;93.20;;;;;;4981273;28;20101;-64
2022/04/09 11:09:59;;;;;;;4.10;0.70;;;6.60;93.80;;;;;;4967577;28;20057;-64
2022/04/09 11:12:30;;;;;;;3.00;0.57;;;6.70;91.90;;;;;;4978023;28;20038;-67
2022/04/09 11:14:58;;;;;;;2.58;0.60;;;6.60;92.00;;;;;;4967605;28;20050;-64
2022/04/09 11:17:31;;;;;;;1.63;0.90;;;6.70;93.40;;;;;;4979934;28;20547;-65
2022/04/09 11:20:02;;;;;;;5.22;0.70;;;6.70;94.10;;;;;;4974505;28;20149;-63
2022/04/09 11:22:40;;;;;;;4.68;0.95;;;6.60;92.90;;;;;;4971130;28;20045;-64
2022/04/09 11:25:26;;;;;;;2.13;0.70;;;6.60;87.50;;;;;;4969777;28;20053;-70
2022/04/09 11:28:04;;;;;;;2.20;0.60;;;6.60;89.20;;;;;;4976046;28;20133;-65
2022/04/09 11:30:31;;;;;;;1.17;0.82;;;6.70;91.00;;;;;;4968246;28;20102;-63
2022/04/09 11:32:58;;;;;;;1.85;0.70;;;6.70;92.80;;;;;;4972293;28;20117;-64
2022/04/09 11:35:25;;;;;;;1.73;0.82;;;7.00;95.70;;;;;;4974091;28;20488;-64
2022/04/09 11:37:53;;;;;;;1.45;0.57;;;7.20;94.60;;;;;;4972554;28;20085;-63
2022/04/09 11:40:21;;;;;;;4.43;0.85;;;7.40;94.70;;;;;;4973400;28;20154;-66
2022/04/09 11:42:55;;;;;;;1.13;0.65;;;7.50;94.00;;;;;;4973162;28;20155;-64
2022/04/09 11:45:33;;;;;;;3.33;0.50;;;7.70;93.90;;;;;;4977578;28;20066;-64
2022/04/09 11:48:02;;;;;;;1.73;0.80;;;7.70;92.70;;;;;;4975805;28;20456;-66
2022/04/09 11:50:33;;;;;;;3.13;0.82;;;7.70;92.50;;;;;;4978885;28;20524;-64
2022/04/09 11:53:13;;;;;;;2.40;0.60;;;7.70;92.20;;;;;;4974227;28;20050;-66
2022/04/09 11:55:41;;;;;;;1.65;0.80;;;7.70;93.60;;;;;;4967279;28;20446;-66
2022/04/09 11:58:11;;;;;;;1.65;0.70;;;7.70;94.00;;;;;;4972022;28;20116;-65
2022/04/09 12:00:42;;;;;;;3.50;1.10;;;7.80;94.40;;;;;;4975470;28;20405;-63
2022/04/09 12:03:09;;;;;;;0.45;0.43;;;8.00;94.30;;;;;;4981169;28;20722;-63
2022/04/09 12:05:39;;;;;;;2.20;0.70;;;8.10;93.10;;;;;;4978363;28;20046;-66
2022/04/09 12:08:11;;;;;;;2.13;0.52;;;8.00;93.30;;;;;;4984258;28;20121;-64
2022/04/09 12:10:53;;;;;;;1.50;0.80;;;8.10;92.30;;;;;;4975247;28;20496;-65
2022/04/09 12:13:31;;;;;;;0.95;0.95;;;8.10;92.40;;;;;;4978458;28;20548;-63
2022/04/09 12:16:13;;;;;;;4.22;0.70;;;8.20;93.00;;;;;;4974779;28;20349;-65
2022/04/09 12:18:41;;;;;;;2.90;0.95;;;8.10;93.10;;;;;;4983512;28;20116;-66
2022/04/09 12:21:23;;;;;;;3.42;1.10;;;8.00;91.10;;;;;;4978457;28;20129;-64
2022/04/09 12:24:05;;;;;;;1.10;0.60;;;7.90;91.80;;;;;;4975672;28;20134;-64
2022/04/09 12:26:34;;;;;;;4.35;0.50;;;7.70;92.40;;;;;;4982616;28;20052;-64
2022/04/09 12:29:12;;;;;;;3.00;0.98;;;7.50;91.90;;;;;;4977688;28;20042;-64
2022/04/09 12:31:41;;;;;;;1.85;0.50;;;7.30;91.40;;;;;;4980535;28;20047;-62
2022/04/09 12:34:09;;;;;;;1.00;0.63;;;7.20;90.80;;;;;;4974418;28;20053;-65
2022/04/09 12:36:36;;;;;;;3.58;0.95;;;7.20;90.40;;;;;;4976339;28;20136;-65
2022/04/09 12:39:25;;;;;;;3.85;0.70;;;7.10;90.10;;;;;;4979958;28;20047;-63
2022/04/09 12:41:55;;;;;;;4.63;0.60;;;7.20;91.10;;;;;;4980715;28;20130;-67
2022/04/09 12:44:25;;;;;;;4.27;1.30;;;7.20;91.20;;;;;;4979499;28;20047;-62
2022/04/09 12:46:53;;;;;;;2.38;0.90;;;7.20;92.50;;;;;;4976957;28;20282;-63
2022/04/09 12:49:30;;;;;;;1.67;0.50;;;7.20;90.40;;;;;;4977358;28;20042;-62
2022/04/09 12:51:57;;;;;;;3.80;0.70;;;7.30;91.10;;;;;;4969523;28;20735;-64
2022/04/09 12:54:27;;;;;;;1.70;0.60;;;7.30;91.30;;;;;;4979770;28;20137;-64
2022/04/09 12:56:55;;;;;;;4.43;0.60;;;7.40;91.10;;;;;;4977830;28;22619;-64
2022/04/09 12:59:23;;;;;;;3.00;0.70;;;7.50;95.80;;;;;;4983085;28;20049;-64
2022/04/09 13:01:50;;;;;;;1.52;0.52;;;7.60;96.80;;;;;;4989937;28;20069;-65
2022/04/09 13:04:18;;;;;;;1.40;0.80;;;7.70;95.60;;;;;;4980126;28;20479;-65
2022/04/09 13:06:45;;;;;;;6.35;0.77;;;7.70;93.70;;;;;;4979068;28;20050;-66
2022/04/09 13:09:12;;;;;;;3.30;0.60;;;7.60;92.80;;;;;;4985447;28;20050;-68
2022/04/09 13:11:39;;;;;;;0.57;0.50;;;7.60;92.40;;;;;;4976721;28;20185;-64
2022/04/09 13:14:06;;;;;;;2.42;0.98;;;7.60;92.40;;;;;;4991411;28;20137;-63
2022/04/09 13:16:33;;;;;;;0.55;0.55;;;7.60;92.30;;;;;;4995127;28;20384;-65